Time;durP1;ratioP1;P1;durP2;ratioP2;P2;SDS_P1;SDS_P2;PMS_P1;PMS_P2;Temp;Humidity;BMP_temperature;BMP_pressure;BME280_temperature;BME280_humidity;BME280_pressure;Samples;Min_cycle;Max_cycle;Signal;HPM_P1;HPM_P2
2023/03/29 00:00:26;;;;;;;37.60;25.38;;;3.90;87.10;;;;;;4995324;28;20567;-61
2023/03/29 00:02:55;;;;;;;32.83;22.83;;;3.80;87.30;;;;;;4995133;28;20050;-61
2023/03/29 00:05:24;;;;;;;36.22;23.38;;;3.80;87.60;;;;;;4995127;28;20019;-62
2023/03/29 00:07:52;;;;;;;37.28;24.58;;;3.80;87.30;;;;;;4995274;28;20022;-62
2023/03/29 00:10:22;;;;;;;35.47;24.48;;;3.80;87.20;;;;;;4995126;28;20473;-62
2023/03/29 00:12:50;;;;;;;40.65;25.55;;;3.80;87.90;;;;;;4995284;28;20030;-61
2023/03/29 00:15:17;;;;;;;41.35;26.95;;;3.80;89.40;;;;;;4995132;28;20065;-61
2023/03/29 00:17:43;;;;;;;41.50;25.63;;;3.80;89.10;;;;;;4994998;28;20022;-61
2023/03/29 00:20:09;;;;;;;54.08;32.42;;;3.80;88.60;;;;;;4994980;28;20023;-62
2023/03/29 00:22:40;;;;;;;41.10;26.15;;;3.80;87.30;;;;;;4995231;28;20022;-62
2023/03/29 00:25:07;;;;;;;34.65;23.08;;;3.70;88.00;;;;;;4995093;28;20433;-62
2023/03/29 00:27:33;;;;;;;43.67;27.58;;;3.70;88.00;;;;;;4994979;28;20492;-62
2023/03/29 00:29:59;;;;;;;47.80;29.05;;;3.60;87.20;;;;;;4994793;28;20022;-62
2023/03/29 00:32:25;;;;;;;34.58;22.75;;;3.60;87.50;;;;;;4994705;28;20029;-62
2023/03/29 00:34:51;;;;;;;33.22;22.02;;;3.50;88.20;;;;;;4994544;28;20054;-60
2023/03/29 00:37:17;;;;;;;35.90;23.27;;;3.50;88.40;;;;;;4994743;28;20116;-61
2023/03/29 00:39:44;;;;;;;32.50;21.27;;;3.60;88.50;;;;;;4994022;28;20028;-61
2023/03/29 00:42:15;;;;;;;26.17;17.30;;;3.50;86.40;;;;;;4994802;28;20054;-60
2023/03/29 00:44:58;;;;;;;22.42;16.58;;;3.50;86.30;;;;;;4994589;28;20022;-60
2023/03/29 00:47:43;;;;;;;24.00;14.82;;;3.50;85.80;;;;;;4994664;28;20029;-62
2023/03/29 00:50:15;;;;;;;23.17;15.32;;;3.60;84.30;;;;;;4994257;28;20050;-61
2023/03/29 00:52:45;;;;;;;28.92;19.60;;;3.60;83.50;;;;;;4994501;28;20054;-61
2023/03/29 00:55:18;;;;;;;24.67;17.42;;;3.60;84.70;;;;;;4994460;28;20026;-62
2023/03/29 00:57:46;;;;;;;20.35;13.95;;;3.50;84.10;;;;;;4994711;28;20034;-61
2023/03/29 01:00:19;;;;;;;27.67;17.98;;;3.50;84.60;;;;;;4994345;28;20039;-62
2023/03/29 01:02:49;;;;;;;20.85;14.82;;;3.40;84.20;;;;;;4994200;28;20039;-60
2023/03/29 01:05:24;;;;;;;20.60;13.38;;;3.40;85.00;;;;;;4994071;28;20533;-61
2023/03/29 01:07:59;;;;;;;21.42;14.85;;;3.40;85.30;;;;;;4994300;28;20024;-61
2023/03/29 01:10:52;;;;;;;20.30;14.15;;;3.40;85.50;;;;;;4994023;28;20027;-61
2023/03/29 01:13:25;;;;;;;23.30;15.43;;;3.40;85.40;;;;;;4994150;28;20053;-61
2023/03/29 01:15:52;;;;;;;;;;;3.40;85.60;;;;;;4994807;28;20026;-61
2023/03/29 01:18:20;;;;;;;18.63;13.02;;;3.50;86.80;;;;;;4993992;28;20048;-62
2023/03/29 01:21:09;;;;;;;18.60;12.60;;;3.50;86.10;;;;;;4994193;28;20038;-61
2023/03/29 01:24:05;;;;;;;20.80;14.45;;;3.50;86.20;;;;;;4994011;28;20033;-60
2023/03/29 01:26:50;;;;;;;19.88;14.52;;;3.50;85.90;;;;;;4993997;28;20022;-60
2023/03/29 01:29:21;;;;;;;25.50;17.63;;;3.60;86.20;;;;;;4993795;28;20031;-61
2023/03/29 01:32:00;;;;;;;27.92;19.17;;;3.60;85.40;;;;;;4993935;28;20515;-62
2023/03/29 01:35:09;;;;;;;18.58;13.13;;;3.50;86.20;;;;;;4993648;28;20045;-61
2023/03/29 01:38:01;;;;;;;25.63;17.55;;;3.50;87.20;;;;;;4972223;28;20110;-60
2023/03/29 01:40:27;;;;;;;19.85;14.38;;;3.50;87.20;;;;;;4972412;28;20035;-61
2023/03/29 01:43:05;;;;;;;20.95;14.38;;;3.60;87.90;;;;;;4987081;28;20097;-62
2023/03/29 01:45:39;;;;;;;27.40;17.10;;;3.60;87.70;;;;;;4993925;28;20026;-61
2023/03/29 01:48:14;;;;;;;24.02;15.93;;;3.70;86.60;;;;;;4993509;28;20058;-60
2023/03/29 01:50:53;;;;;;;22.80;15.75;;;3.70;86.50;;;;;;4996627;28;20117;-62
2023/03/29 01:53:27;;;;;;;19.88;14.43;;;3.70;85.90;;;;;;4997669;28;20093;-61
2023/03/29 01:56:03;;;;;;;15.73;11.63;;;3.70;86.20;;;;;;4997756;28;20421;-61
2023/03/29 01:58:33;;;;;;;19.08;12.73;;;3.70;86.60;;;;;;4997645;28;20038;-60
2023/03/29 02:01:04;;;;;;;18.45;11.65;;;3.80;86.60;;;;;;4997812;28;20393;-62
2023/03/29 02:03:33;;;;;;;15.57;11.25;;;3.80;86.80;;;;;;4997249;28;20046;-62
2023/03/29 02:06:00;;;;;;;16.98;12.27;;;3.80;86.40;;;;;;4997474;28;20465;-62
2023/03/29 02:08:27;;;;;;;16.50;11.85;;;3.80;85.00;;;;;;4997444;28;20425;-62
2023/03/29 02:10:53;;;;;;;16.77;12.38;;;3.80;84.40;;;;;;4997616;28;20118;-63
2023/03/29 02:13:19;;;;;;;16.38;10.77;;;3.70;83.40;;;;;;4997310;28;20050;-61
2023/03/29 02:15:46;;;;;;;16.80;11.32;;;3.70;83.60;;;;;;4997495;28;20388;-61
2023/03/29 02:18:16;;;;;;;15.43;11.90;;;3.60;83.90;;;;;;4997397;28;20404;-61
2023/03/29 02:20:47;;;;;;;17.33;11.57;;;3.50;83.70;;;;;;4997068;28;20037;-62
2023/03/29 02:23:26;;;;;;;12.00;8.80;;;3.30;84.60;;;;;;4997207;28;20081;-62
2023/03/29 02:25:55;;;;;;;14.18;9.98;;;3.20;86.00;;;;;;4997216;28;20022;-61
2023/03/29 02:28:23;;;;;;;19.20;13.35;;;3.20;84.90;;;;;;4997017;28;20109;-62
2023/03/29 02:31:07;;;;;;;13.65;10.13;;;3.20;85.30;;;;;;4996953;28;20022;-61
2023/03/29 02:33:53;;;;;;;13.63;9.77;;;3.10;86.40;;;;;;4996929;28;20134;-62
2023/03/29 02:36:48;;;;;;;14.02;10.10;;;3.10;86.30;;;;;;4997001;28;20025;-62
2023/03/29 02:39:15;;;;;;;13.50;10.70;;;3.10;85.70;;;;;;4996327;28;20038;-63
2023/03/29 02:41:44;;;;;;;20.10;13.52;;;3.10;86.00;;;;;;4996837;28;20027;-61
2023/03/29 02:44:14;;;;;;;22.38;15.90;;;3.10;86.40;;;;;;4996973;28;20477;-62
2023/03/29 02:46:42;;;;;;;16.83;11.65;;;3.10;86.40;;;;;;4996559;28;20030;-61
2023/03/29 02:49:09;;;;;;;16.80;11.63;;;3.00;86.70;;;;;;4996687;28;20023;-62
2023/03/29 02:51:37;;;;;;;17.75;12.38;;;3.10;87.00;;;;;;4996893;28;20366;-63
2023/03/29 02:54:07;;;;;;;22.33;15.23;;;3.10;86.50;;;;;;4996706;28;20026;-62
2023/03/29 02:56:42;;;;;;;25.15;18.85;;;3.10;86.20;;;;;;4996812;28;20389;-62
2023/03/29 02:59:08;;;;;;;19.58;13.07;;;3.00;86.80;;;;;;4996864;28;20385;-62
2023/03/29 03:01:35;;;;;;;16.88;12.48;;;2.80;87.40;;;;;;4995381;28;20038;-62
2023/03/29 03:04:02;;;;;;;15.93;12.15;;;2.80;87.20;;;;;;4996400;28;20116;-61
2023/03/29 03:06:28;;;;;;;13.48;10.63;;;2.90;87.70;;;;;;4996455;28;20026;-62
2023/03/29 03:08:54;;;;;;;14.93;10.85;;;2.90;87.70;;;;;;4996646;28;20036;-63
2023/03/29 03:11:20;;;;;;;15.55;10.68;;;3.00;88.00;;;;;;4996231;28;20022;-62
2023/03/29 03:13:46;;;;;;;17.88;12.35;;;2.90;87.80;;;;;;4996606;28;20507;-63
2023/03/29 03:16:12;;;;;;;17.23;12.85;;;2.80;87.40;;;;;;4996055;28;20121;-62
2023/03/29 03:18:37;;;;;;;14.27;10.77;;;2.80;87.50;;;;;;4996131;28;20054;-62
2023/03/29 03:21:04;;;;;;;13.60;9.93;;;2.90;88.20;;;;;;4996159;28;20057;-61
2023/03/29 03:23:29;;;;;;;14.15;9.65;;;2.80;88.00;;;;;;4996252;28;20054;-61
2023/03/29 03:25:55;;;;;;;13.35;10.40;;;2.80;87.40;;;;;;4996060;28;20459;-62
2023/03/29 03:28:23;;;;;;;13.27;9.40;;;2.80;87.40;;;;;;4996080;28;20026;-62
2023/03/29 03:30:49;;;;;;;14.18;10.15;;;2.80;87.90;;;;;;4995826;28;20058;-62
2023/03/29 03:33:15;;;;;;;13.32;9.93;;;2.80;86.90;;;;;;4995921;28;20470;-62
2023/03/29 03:35:41;;;;;;;14.93;10.73;;;2.80;87.60;;;;;;4995818;28;20477;-63
2023/03/29 03:38:07;;;;;;;15.48;10.27;;;2.80;86.90;;;;;;4995956;28;20081;-62
2023/03/29 03:40:33;;;;;;;11.98;9.25;;;2.80;87.20;;;;;;4995791;28;20030;-62
2023/03/29 03:42:59;;;;;;;20.35;14.77;;;2.80;87.00;;;;;;4995517;28;20428;-63
2023/03/29 03:45:25;;;;;;;16.92;12.13;;;2.70;87.10;;;;;;4995756;28;20026;-62
2023/03/29 03:47:51;;;;;;;19.85;12.70;;;2.70;87.50;;;;;;4995938;28;20056;-62
2023/03/29 03:50:18;;;;;;;17.92;11.68;;;2.70;87.90;;;;;;4995548;28;20018;-61
2023/03/29 03:52:43;;;;;;;18.00;11.55;;;2.70;88.20;;;;;;4995590;28;20022;-61
2023/03/29 03:55:10;;;;;;;16.80;11.48;;;2.60;88.10;;;;;;4995850;28;20429;-63
2023/03/29 03:57:36;;;;;;;17.70;11.88;;;2.70;88.20;;;;;;4995162;28;20026;-60
2023/03/29 04:00:18;;;;;;;16.80;11.90;;;2.60;88.40;;;;;;4995411;28;20022;-63
2023/03/29 04:02:44;;;;;;;15.30;10.75;;;2.70;88.40;;;;;;4995281;28;20050;-61
2023/03/29 04:05:11;;;;;;;17.33;12.13;;;2.70;88.20;;;;;;4995301;28;20077;-63
2023/03/29 04:07:36;;;;;;;20.73;14.32;;;2.60;88.30;;;;;;4995295;28;20477;-62
2023/03/29 04:10:03;;;;;;;20.95;13.63;;;2.50;89.10;;;;;;4995523;28;20022;-62
2023/03/29 04:12:28;;;;;;;24.75;16.20;;;2.50;89.40;;;;;;4994599;28;20023;-62
2023/03/29 04:14:54;;;;;;;23.90;16.00;;;2.50;88.70;;;;;;4994934;28;20022;-63
2023/03/29 04:17:20;;;;;;;21.98;15.25;;;2.50;88.40;;;;;;4995151;28;20065;-62
2023/03/29 04:19:46;;;;;;;20.88;14.23;;;2.60;88.00;;;;;;4993712;28;20057;-61
2023/03/29 04:22:12;;;;;;;17.33;12.30;;;2.60;89.10;;;;;;4995032;28;20034;-60
2023/03/29 04:24:37;;;;;;;16.73;11.45;;;2.50;88.50;;;;;;4995199;28;20033;-61
2023/03/29 04:27:03;;;;;;;15.77;11.60;;;2.50;88.30;;;;;;4994683;28;20154;-63
2023/03/29 04:29:29;;;;;;;15.05;10.57;;;2.50;88.30;;;;;;4995068;28;20022;-61
2023/03/29 04:31:55;;;;;;;16.88;12.10;;;2.60;88.30;;;;;;4994960;28;20533;-61
2023/03/29 04:34:21;;;;;;;14.57;9.25;;;2.60;88.00;;;;;;4993735;28;20465;-61
2023/03/29 04:36:49;;;;;;;19.08;13.10;;;2.50;88.20;;;;;;4994766;28;20095;-63
2023/03/29 04:39:16;;;;;;;18.55;11.73;;;2.50;88.30;;;;;;4994693;28;20022;-62
2023/03/29 04:41:46;;;;;;;17.85;11.77;;;2.40;88.80;;;;;;4994382;28;20030;-62
2023/03/29 04:44:13;;;;;;;15.82;11.10;;;2.40;89.40;;;;;;4994626;28;20442;-63
2023/03/29 04:46:39;;;;;;;16.27;11.63;;;2.40;89.30;;;;;;4994700;28;20105;-61
2023/03/29 04:49:05;;;;;;;17.23;11.52;;;2.40;88.90;;;;;;4994749;28;20362;-61
2023/03/29 04:51:32;;;;;;;18.60;12.85;;;2.40;89.70;;;;;;4994504;28;20096;-62
2023/03/29 04:53:58;;;;;;;24.95;16.80;;;2.50;89.70;;;;;;4994366;28;20480;-62
2023/03/29 04:56:25;;;;;;;20.55;13.63;;;2.50;89.70;;;;;;4994111;28;20030;-60
2023/03/29 04:58:50;;;;;;;22.30;15.43;;;2.50;90.10;;;;;;4994081;28;20035;-62
2023/03/29 05:01:16;;;;;;;19.50;13.52;;;2.60;90.30;;;;;;4994357;28;20100;-62
2023/03/29 05:03:42;;;;;;;21.00;14.25;;;2.60;90.00;;;;;;4993866;28;20057;-62
2023/03/29 05:06:10;;;;;;;20.63;13.45;;;2.60;89.80;;;;;;4993973;28;20030;-62
2023/03/29 05:08:38;;;;;;;16.80;10.95;;;2.80;89.80;;;;;;4994045;28;20018;-61
2023/03/29 05:11:06;;;;;;;15.90;11.38;;;2.80;89.60;;;;;;4993584;28;20026;-62
2023/03/29 05:13:32;;;;;;;17.63;11.02;;;2.90;89.20;;;;;;4993853;28;20532;-60
2023/03/29 05:15:59;;;;;;;16.45;11.68;;;3.00;88.70;;;;;;4984965;28;20500;-63
2023/03/29 05:18:25;;;;;;;20.10;12.13;;;3.10;89.30;;;;;;4982677;28;20030;-62
2023/03/29 05:20:52;;;;;;;22.27;15.70;;;3.10;88.80;;;;;;4982461;28;20112;-63
2023/03/29 05:23:19;;;;;;;17.63;11.57;;;3.20;89.00;;;;;;4983467;28;20084;-62
2023/03/29 05:25:47;;;;;;;14.95;10.18;;;3.30;88.50;;;;;;4981655;28;20018;-61
2023/03/29 05:28:13;;;;;;;13.75;9.80;;;3.40;87.80;;;;;;4982843;28;20031;-61
2023/03/29 05:30:39;;;;;;;12.43;8.98;;;3.50;86.80;;;;;;4983400;28;20106;-62
2023/03/29 05:33:05;;;;;;;13.40;9.18;;;3.60;86.90;;;;;;4974323;28;20023;-62
2023/03/29 05:35:31;;;;;;;19.80;13.43;;;3.80;86.50;;;;;;4974307;28;20094;-61
2023/03/29 05:37:57;;;;;;;18.77;11.77;;;3.90;86.00;;;;;;4973538;28;20023;-61
2023/03/29 05:40:25;;;;;;;20.45;13.27;;;3.90;86.90;;;;;;4973693;28;20033;-62
2023/03/29 05:42:51;;;;;;;15.85;11.52;;;4.00;86.60;;;;;;4974314;28;20053;-61
2023/03/29 05:45:17;;;;;;;15.40;10.68;;;4.00;86.20;;;;;;4974210;28;20023;-61
2023/03/29 05:47:43;;;;;;;14.98;10.82;;;4.20;85.80;;;;;;4974271;28;20022;-61
2023/03/29 05:50:10;;;;;;;21.02;13.25;;;4.20;85.60;;;;;;4974070;28;20105;-62
2023/03/29 05:52:36;;;;;;;13.43;9.45;;;4.20;84.90;;;;;;4974091;28;20397;-62
2023/03/29 05:55:06;;;;;;;14.18;10.25;;;4.20;85.60;;;;;;4981435;28;20033;-61
2023/03/29 05:57:35;;;;;;;14.75;10.05;;;4.20;84.60;;;;;;4984160;28;20086;-60
2023/03/29 06:00:13;;;;;;;13.50;9.82;;;4.30;84.70;;;;;;4982636;28;20026;-61
2023/03/29 06:02:40;;;;;;;14.50;10.02;;;4.40;85.20;;;;;;4982233;28;20532;-61
2023/03/29 06:05:06;;;;;;;12.40;9.50;;;4.50;84.40;;;;;;4990500;28;20030;-62
2023/03/29 06:07:32;;;;;;;11.07;9.15;;;4.70;84.10;;;;;;4993049;28;20098;-62
2023/03/29 06:09:58;;;;;;;15.35;11.00;;;4.90;82.90;;;;;;4982003;28;20126;-60
2023/03/29 06:12:25;;;;;;;13.98;10.32;;;4.90;80.90;;;;;;4982504;28;20564;-62
2023/03/29 06:14:50;;;;;;;12.95;9.98;;;4.80;81.30;;;;;;4985495;28;20062;-61
2023/03/29 06:17:16;;;;;;;15.40;12.45;;;4.90;81.60;;;;;;4988804;28;20057;-61
2023/03/29 06:19:43;;;;;;;22.00;16.17;;;4.90;81.00;;;;;;4983480;28;20098;-61
2023/03/29 06:22:09;;;;;;;22.27;15.57;;;4.90;80.70;;;;;;4981967;28;20033;-61
2023/03/29 06:24:35;;;;;;;21.35;15.10;;;4.90;81.10;;;;;;4983734;28;20093;-61
2023/03/29 06:27:01;;;;;;;18.25;13.48;;;4.80;81.60;;;;;;4982606;28;20054;-62
2023/03/29 06:29:26;;;;;;;20.92;14.55;;;4.90;82.20;;;;;;4984716;28;20019;-62
2023/03/29 06:31:54;;;;;;;17.23;13.00;;;5.00;82.60;;;;;;4982220;28;20023;-61
2023/03/29 06:34:21;;;;;;;24.33;15.27;;;5.30;82.30;;;;;;4982180;28;20035;-60
2023/03/29 06:36:49;;;;;;;19.38;14.63;;;5.50;79.20;;;;;;4983447;28;20023;-61
2023/03/29 06:39:15;;;;;;;15.70;11.93;;;5.70;79.90;;;;;;4983757;28;20042;-61
2023/03/29 06:41:41;;;;;;;16.02;12.50;;;5.80;79.20;;;;;;4986384;28;20473;-61
2023/03/29 06:44:07;;;;;;;24.75;14.57;;;6.00;79.60;;;;;;4985447;28;20027;-61
2023/03/29 06:46:33;;;;;;;16.27;12.85;;;6.20;78.50;;;;;;4986074;28;20014;-60
2023/03/29 06:48:59;;;;;;;19.88;13.43;;;6.10;75.40;;;;;;4987258;28;20029;-61
2023/03/29 06:51:26;;;;;;;18.08;13.38;;;6.10;74.90;;;;;;4994262;28;20062;-62
2023/03/29 06:53:52;;;;;;;17.13;12.80;;;6.10;75.70;;;;;;4975748;28;20034;-65
2023/03/29 06:56:17;;;;;;;17.50;12.98;;;6.20;73.60;;;;;;4989000;28;20038;-64
2023/03/29 06:58:43;;;;;;;18.48;14.30;;;6.40;75.30;;;;;;4992211;28;20116;-63
2023/03/29 07:01:10;;;;;;;20.48;13.82;;;7.10;73.50;;;;;;4991926;28;20026;-63
2023/03/29 07:03:38;;;;;;;17.27;13.07;;;8.40;71.10;;;;;;4988440;28;20173;-59
2023/03/29 07:06:08;;;;;;;15.55;11.80;;;10.40;64.80;;;;;;4995132;28;20030;-65
2023/03/29 07:08:42;;;;;;;17.10;12.10;;;13.40;58.10;;;;;;4992611;28;20034;-68
2023/03/29 07:11:11;;;;;;;11.98;10.48;;;15.90;50.30;;;;;;4993721;28;20117;-64
2023/03/29 07:13:41;;;;;;;13.10;9.85;;;17.80;45.40;;;;;;4994805;28;20041;-63
2023/03/29 07:16:11;;;;;;;12.77;9.35;;;19.30;40.80;;;;;;4993408;28;20088;-61
2023/03/29 07:18:38;;;;;;;10.73;8.10;;;20.20;37.80;;;;;;4993523;28;20022;-63
2023/03/29 07:21:05;;;;;;;11.10;8.77;;;20.10;36.90;;;;;;4992069;28;20470;-61
2023/03/29 07:23:30;;;;;;;14.13;9.50;;;19.30;36.20;;;;;;4985858;28;20035;-62
2023/03/29 07:25:56;;;;;;;10.57;8.80;;;17.50;36.90;;;;;;4974493;28;20029;-62
2023/03/29 07:28:22;;;;;;;11.52;8.75;;;16.20;39.10;;;;;;4991672;28;20114;-65
2023/03/29 07:30:48;;;;;;;11.00;8.60;;;14.80;40.00;;;;;;4990834;28;20471;-61
2023/03/29 07:33:14;;;;;;;9.02;7.78;;;13.90;41.50;;;;;;4991618;28;20064;-62
2023/03/29 07:35:42;;;;;;;7.82;6.70;;;13.10;44.30;;;;;;4985032;28;20019;-63
2023/03/29 07:38:08;;;;;;;7.72;6.80;;;13.40;44.40;;;;;;4989048;28;20097;-65
2023/03/29 07:40:34;;;;;;;7.93;6.30;;;13.60;42.80;;;;;;4973047;28;20437;-64
2023/03/29 07:43:01;;;;;;;6.28;5.65;;;13.50;42.60;;;;;;4992307;28;20101;-62
2023/03/29 07:45:30;;;;;;;6.68;5.28;;;13.10;43.80;;;;;;4990295;28;20037;-63
2023/03/29 07:47:58;;;;;;;7.03;5.47;;;13.00;43.90;;;;;;4992421;28;20117;-62
2023/03/29 07:50:24;;;;;;;9.10;5.82;;;12.90;42.70;;;;;;4985718;28;20540;-67
2023/03/29 07:52:50;;;;;;;6.18;5.47;;;12.80;41.80;;;;;;4983481;28;20096;-64
2023/03/29 07:55:16;;;;;;;6.18;5.47;;;13.20;44.00;;;;;;4991124;28;20469;-64
2023/03/29 07:57:43;;;;;;;5.55;4.82;;;14.30;43.00;;;;;;4992269;28;20014;-62
2023/03/29 08:00:19;;;;;;;5.85;4.93;;;16.00;42.00;;;;;;4990612;28;20030;-64
2023/03/29 08:02:48;;;;;;;4.75;4.25;;;17.30;39.50;;;;;;4990997;28;20412;-62
2023/03/29 08:05:21;;;;;;;5.55;4.68;;;18.20;38.00;;;;;;4989295;28;20030;-64
2023/03/29 08:07:48;;;;;;;6.15;5.00;;;19.30;35.90;;;;;;4990069;28;20374;-62
2023/03/29 08:10:18;;;;;;;6.93;5.10;;;20.20;34.60;;;;;;4991410;28;20038;-65
2023/03/29 08:12:46;;;;;;;7.05;4.95;;;19.90;34.10;;;;;;4990364;28;20034;-61
2023/03/29 08:15:12;;;;;;;6.88;5.95;;;19.90;34.70;;;;;;4991721;28;20030;-61
2023/03/29 08:17:39;;;;;;;8.30;6.57;;;20.00;33.60;;;;;;4990485;28;20551;-63
2023/03/29 08:20:09;;;;;;;7.35;6.13;;;19.60;35.40;;;;;;4992003;28;20033;-65
2023/03/29 08:22:36;;;;;;;7.10;5.93;;;19.50;33.40;;;;;;4993212;28;20112;-63
2023/03/29 08:25:03;;;;;;;7.40;6.15;;;19.30;33.20;;;;;;4992942;28;20018;-62
2023/03/29 08:27:29;;;;;;;8.15;6.40;;;19.60;34.70;;;;;;4991839;28;20129;-62
2023/03/29 08:29:55;;;;;;;6.65;5.60;;;20.00;32.50;;;;;;4993044;28;20142;-64
2023/03/29 08:32:24;;;;;;;5.80;5.20;;;20.20;33.80;;;;;;4991986;28;20081;-68
2023/03/29 08:34:50;;;;;;;5.30;4.80;;;20.60;31.50;;;;;;4992420;28;20094;-63
2023/03/29 08:37:16;;;;;;;6.50;4.57;;;21.00;33.30;;;;;;4992129;28;20531;-60
2023/03/29 08:39:42;;;;;;;4.63;4.18;;;21.00;30.00;;;;;;4983715;28;20027;-64
2023/03/29 08:42:24;;;;;;;5.45;3.85;;;20.80;30.30;;;;;;4983136;28;20097;-62
2023/03/29 08:45:32;;;;;;;3.90;3.30;;;20.20;28.40;;;;;;4982334;28;20019;-62
2023/03/29 08:48:20;;;;;;;3.53;3.20;;;19.80;29.30;;;;;;4986252;28;20042;-61
2023/03/29 08:51:00;;;;;;;4.90;3.88;;;19.40;29.70;;;;;;4984249;28;20497;-61
2023/03/29 08:53:32;;;;;;;4.25;3.80;;;18.70;31.00;;;;;;4983177;28;20073;-65
2023/03/29 08:56:10;;;;;;;4.28;3.70;;;18.50;33.20;;;;;;4978534;28;20034;-64
2023/03/29 08:58:37;;;;;;;3.83;3.42;;;19.00;32.10;;;;;;4982967;28;20117;-64
2023/03/29 09:01:07;;;;;;;4.30;3.65;;;19.20;32.00;;;;;;4983639;28;20072;-62
2023/03/29 09:03:43;;;;;;;3.40;2.88;;;19.20;31.70;;;;;;4983449;28;20133;-62
2023/03/29 09:06:11;;;;;;;2.85;2.55;;;19.10;30.10;;;;;;4990794;28;20449;-62
2023/03/29 09:08:45;;;;;;;2.47;2.28;;;19.50;29.00;;;;;;4990376;28;20085;-61
2023/03/29 09:11:23;;;;;;;3.80;3.30;;;19.50;29.00;;;;;;4988575;28;20026;-65
2023/03/29 09:14:00;;;;;;;4.68;4.18;;;19.80;28.70;;;;;;4985000;28;20027;-61
2023/03/29 09:17:06;;;;;;;3.60;3.30;;;19.30;28.00;;;;;;4979698;28;20054;-63
2023/03/29 09:19:59;;;;;;;3.88;2.90;;;18.10;28.00;;;;;;4966477;28;20155;-63
2023/03/29 09:22:28;;;;;;;3.70;2.83;;;17.50;29.60;;;;;;4990027;28;20103;-62
2023/03/29 09:24:56;;;;;;;2.15;1.95;;;18.00;28.40;;;;;;4992749;28;20092;-63
2023/03/29 09:27:26;;;;;;;2.10;1.88;;;18.40;27.70;;;;;;4992179;28;20030;-65
2023/03/29 09:30:05;;;;;;;2.20;1.30;;;18.60;27.70;;;;;;4987333;28;20152;-64
2023/03/29 09:32:38;;;;;;;1.63;1.27;;;18.60;25.80;;;;;;4990612;28;20035;-63
2023/03/29 09:38:30;;;;;;;1.42;1.23;;;18.50;29.20;;;;;;4986049;28;20033;-61
2023/03/29 09:41:32;;;;;;;1.52;1.20;;;18.70;30.00;;;;;;4974623;28;20687;-60
2023/03/29 09:44:13;;;;;;;1.67;1.38;;;19.00;29.70;;;;;;4977699;28;20030;-60
2023/03/29 09:47:09;;;;;;;1.05;0.98;;;19.10;28.20;;;;;;4982787;28;20037;-62
2023/03/29 09:49:48;;;;;;;2.35;1.50;;;18.90;29.40;;;;;;4982759;28;20605;-62
2023/03/29 09:52:16;;;;;;;1.65;1.55;;;18.50;28.10;;;;;;4982530;28;20027;-62
2023/03/29 09:54:42;;;;;;;1.38;1.27;;;18.50;28.90;;;;;;4984854;28;20113;-62
2023/03/29 09:57:12;;;;;;;2.45;1.73;;;18.30;28.60;;;;;;4986241;28;20062;-64
2023/03/29 09:59:38;;;;;;;1.50;1.40;;;18.40;28.70;;;;;;4986765;28;20505;-63
2023/03/29 10:02:29;;;;;;;1.80;1.70;;;18.50;28.70;;;;;;4988434;28;20125;-65
2023/03/29 10:04:54;;;;;;;1.90;1.50;;;18.70;28.10;;;;;;4981429;28;20030;-65
2023/03/29 10:07:21;;;;;;;3.05;2.75;;;19.10;28.00;;;;;;4989781;28;20488;-62
2023/03/29 10:09:49;;;;;;;3.75;2.95;;;19.10;25.30;;;;;;4988749;28;20065;-66
2023/03/29 10:12:15;;;;;;;4.35;3.72;;;18.70;26.90;;;;;;4993933;28;20023;-64
2023/03/29 10:14:53;;;;;;;1.20;1.10;;;19.00;25.80;;;;;;4996529;28;20485;-61
2023/03/29 10:17:26;;;;;;;2.42;2.10;;;19.10;24.40;;;;;;4996619;28;20097;-63
2023/03/29 10:20:06;;;;;;;1.58;1.48;;;18.90;25.90;;;;;;4994985;28;20062;-62
2023/03/29 10:22:36;;;;;;;2.92;2.20;;;18.90;26.40;;;;;;4996187;28;20026;-63
2023/03/29 10:25:03;;;;;;;2.40;2.20;;;19.10;24.10;;;;;;4995437;28;20038;-63
2023/03/29 10:27:35;;;;;;;1.80;1.67;;;19.30;25.70;;;;;;4987428;28;20034;-61
2023/03/29 10:30:11;;;;;;;2.50;1.60;;;19.40;27.40;;;;;;4985244;28;20034;-63
2023/03/29 10:32:38;;;;;;;1.50;1.40;;;19.70;25.90;;;;;;4983713;28;20069;-63
2023/03/29 10:35:11;;;;;;;1.83;1.73;;;20.10;24.50;;;;;;4993206;28;20094;-62
2023/03/29 10:37:47;;;;;;;4.72;2.22;;;20.50;24.90;;;;;;4995091;28;20444;-61
2023/03/29 10:40:31;;;;;;;2.55;2.35;;;20.90;24.90;;;;;;4992085;28;20418;-65
2023/03/29 10:42:59;;;;;;;2.00;1.73;;;21.00;25.00;;;;;;4989427;28;20496;-61
2023/03/29 10:45:40;;;;;;;2.85;1.52;;;21.00;25.50;;;;;;4992025;28;20109;-63
2023/03/29 10:48:14;;;;;;;2.13;1.40;;;20.70;24.30;;;;;;4992411;28;20162;-63
2023/03/29 10:50:49;;;;;;;1.90;1.48;;;20.70;24.10;;;;;;4992511;28;20094;-62
2023/03/29 10:53:24;;;;;;;1.70;1.40;;;20.70;25.00;;;;;;4991616;28;20092;-67
2023/03/29 10:56:18;;;;;;;2.60;2.08;;;20.70;25.60;;;;;;4991103;28;20033;-66
2023/03/29 10:58:44;;;;;;;1.85;1.60;;;20.80;25.80;;;;;;4993543;28;20042;-63
2023/03/29 11:01:23;;;;;;;1.45;1.35;;;21.10;25.10;;;;;;4994021;28;20038;-64
2023/03/29 11:04:01;;;;;;;1.58;1.15;;;20.80;25.50;;;;;;4990310;28;20535;-66
2023/03/29 11:06:39;;;;;;;1.90;1.50;;;20.40;27.90;;;;;;4990382;28;20031;-64
2023/03/29 11:09:43;;;;;;;2.00;1.55;;;20.10;26.30;;;;;;4994695;28;20072;-65
2023/03/29 11:12:22;;;;;;;;;;;20.30;27.10;;;;;;4994007;28;20378;-65
2023/03/29 11:14:57;;;;;;;1.60;1.50;;;20.80;25.80;;;;;;4990599;28;19910;-64
2023/03/29 11:17:35;;;;;;;2.38;1.60;;;20.90;30.00;;;;;;4986978;28;20027;-61
2023/03/29 11:20:17;;;;;;;2.15;1.60;;;20.90;27.10;;;;;;4993773;28;20030;-64
2023/03/29 11:22:46;;;;;;;2.45;2.00;;;20.80;28.40;;;;;;4980398;28;20030;-61
2023/03/29 11:25:23;;;;;;;2.60;2.35;;;20.90;26.30;;;;;;4991850;28;20033;-61
2023/03/29 11:28:03;;;;;;;2.80;2.05;;;21.10;27.70;;;;;;4987523;28;20432;-60
2023/03/29 11:30:53;;;;;;;2.10;1.90;;;20.60;29.00;;;;;;4991344;28;20396;-62
2023/03/29 11:33:42;;;;;;;2.20;2.00;;;20.30;29.20;;;;;;4991859;28;20058;-63
2023/03/29 11:36:33;;;;;;;2.80;2.53;;;20.40;28.40;;;;;;4984367;28;20027;-62
2023/03/29 11:39:09;;;;;;;3.85;2.28;;;20.40;27.40;;;;;;4991736;28;20019;-62
2023/03/29 11:41:39;;;;;;;3.22;2.10;;;20.50;27.00;;;;;;4991277;28;20033;-62
2023/03/29 11:44:34;;;;;;;2.97;2.45;;;20.40;26.80;;;;;;4991291;28;20568;-63
2023/03/29 11:47:03;;;;;;;3.30;2.60;;;20.30;28.20;;;;;;4978905;28;20445;-62
2023/03/29 11:49:37;;;;;;;3.22;2.20;;;20.30;28.20;;;;;;4993037;28;20105;-62
2023/03/29 11:52:32;;;;;;;2.45;2.15;;;20.00;27.20;;;;;;4994602;28;20023;-62
2023/03/29 11:55:15;;;;;;;3.03;2.00;;;20.10;27.40;;;;;;4994664;28;20030;-61
2023/03/29 11:58:10;;;;;;;2.17;1.98;;;20.30;30.30;;;;;;4993966;28;20056;-60
2023/03/29 12:00:42;;;;;;;2.10;1.90;;;20.50;28.40;;;;;;4994002;28;20038;-64
2023/03/29 12:03:22;;;;;;;5.38;1.80;;;20.70;30.10;;;;;;4990647;28;20051;-63
2023/03/29 12:05:52;;;;;;;2.78;2.05;;;20.50;28.50;;;;;;4993749;28;20202;-64
2023/03/29 12:08:24;;;;;;;2.53;1.60;;;20.50;26.80;;;;;;4985155;28;20168;-60
2023/03/29 12:11:07;;;;;;;1.65;1.50;;;20.40;26.80;;;;;;4975555;28;20027;-60
2023/03/29 12:13:39;;;;;;;1.63;1.52;;;20.30;27.30;;;;;;4972007;28;20382;-60
2023/03/29 12:16:20;;;;;;;1.38;1.27;;;20.10;26.20;;;;;;4970740;28;20504;-62
2023/03/29 12:18:49;;;;;;;2.25;1.80;;;19.70;26.90;;;;;;4967930;28;20466;-60
2023/03/29 12:21:21;;;;;;;2.80;2.50;;;19.70;28.20;;;;;;4971406;28;20049;-62
2023/03/29 12:23:48;;;;;;;2.38;1.58;;;19.70;27.40;;;;;;4970910;28;20105;-62
2023/03/29 12:26:39;;;;;;;1.75;1.65;;;19.90;26.80;;;;;;4970393;28;20023;-60
2023/03/29 12:29:26;;;;;;;2.03;1.50;;;20.00;27.70;;;;;;4973733;28;20033;-64
2023/03/29 12:31:55;;;;;;;1.50;1.40;;;20.10;27.70;;;;;;4982121;28;20030;-60
2023/03/29 12:34:32;;;;;;;1.35;1.02;;;20.00;28.00;;;;;;4974968;28;20118;-60
2023/03/29 12:37:04;;;;;;;2.65;0.90;;;19.90;28.00;;;;;;4980817;28;20028;-62
2023/03/29 12:43:00;;;;;;;1.50;0.88;;;19.50;29.10;;;;;;4993591;28;20069;-61
2023/03/29 12:45:30;;;;;;;2.03;1.42;;;19.30;29.60;;;;;;4993190;28;20070;-62
2023/03/29 12:47:58;;;;;;;5.65;4.35;;;19.70;28.00;;;;;;4993475;28;20381;-62
2023/03/29 12:50:31;;;;;;;1.88;1.77;;;20.00;29.30;;;;;;4993041;28;20212;-61
2023/03/29 12:53:06;;;;;;;1.60;1.30;;;20.40;27.30;;;;;;4993536;28;20050;-62
2023/03/29 12:55:54;;;;;;;1.48;0.88;;;20.50;27.80;;;;;;4993488;28;20026;-60
2023/03/29 12:58:26;;;;;;;1.25;0.80;;;20.40;26.90;;;;;;4994101;28;20034;-60
2023/03/29 13:01:23;;;;;;;0.93;0.85;;;20.30;26.50;;;;;;4993688;28;20084;-62
2023/03/29 13:03:54;;;;;;;1.35;0.90;;;20.00;27.70;;;;;;4994275;28;20042;-63
2023/03/29 13:09:51;;;;;;;1.77;1.38;;;19.90;26.50;;;;;;4994486;28;20069;-61
2023/03/29 13:12:26;;;;;;;2.67;2.00;;;19.70;26.50;;;;;;4994304;28;20030;-60
2023/03/29 13:14:55;;;;;;;1.58;1.48;;;19.60;27.40;;;;;;4994260;28;20030;-62